Time;durP1;ratioP1;P1;durP2;ratioP2;P2;SDS_P1;SDS_P2;PMS_P1;PMS_P2;Temp;Humidity;BMP_temperature;BMP_pressure;BME280_temperature;BME280_humidity;BME280_pressure;Samples;Min_cycle;Max_cycle;Signal;HPM_P1;HPM_P2
2023/12/04 00:01:13;;;;;;;;;;;;;;;3.96;nan;102217.00;5092271;28;19924;-83
2023/12/04 00:03:38;;;;;;;;;;;;;;;3.98;nan;102213.19;5091511;28;20063;-83
2023/12/04 00:06:04;;;;;;;;;;;;;;;3.92;nan;102217.31;5090180;28;20399;-83
2023/12/04 00:08:29;;;;;;;;;;;;;;;3.84;nan;102208.56;5086841;28;20376;-83
2023/12/04 00:10:55;;;;;;;;;;;;;;;3.80;nan;102216.03;5085279;28;19920;-82
2023/12/04 00:13:20;;;;;;;;;;;;;;;3.73;nan;102203.59;5084383;28;19920;-83
2023/12/04 00:15:45;;;;;;;;;;;;;;;3.68;nan;102201.44;5086417;28;19924;-83
2023/12/04 00:18:11;;;;;;;;;;;;;;;3.69;nan;102205.75;5085852;28;19981;-84
2023/12/04 00:20:37;;;;;;;;;;;;;;;3.70;nan;102207.41;5092355;28;19966;-84
2023/12/04 00:23:02;;;;;;;;;;;;;;;3.75;nan;102204.25;5082546;28;20504;-83
2023/12/04 00:25:28;;;;;;;;;;;;;;;3.74;nan;102198.13;5089961;28;19970;-83
2023/12/04 00:27:53;;;;;;;;;;;;;;;3.77;nan;102208.41;5082833;28;20010;-83
2023/12/04 00:30:18;;;;;;;;;;;;;;;3.79;nan;102205.59;5088221;28;20239;-83
2023/12/04 00:32:43;;;;;;;;;;;;;;;3.78;nan;102203.94;5083447;28;20841;-84
2023/12/04 00:35:09;;;;;;;;;;;;;;;3.84;nan;102203.25;5079046;28;19960;-83
2023/12/04 00:37:38;;;;;;;;;;;;;;;3.88;nan;102205.41;5082639;28;20329;-83
2023/12/04 00:40:04;;;;;;;;;;;;;;;3.91;nan;102210.34;5089757;28;19923;-83
2023/12/04 00:42:29;;;;;;;;;;;;;;;3.90;nan;102215.84;5086290;28;20284;-83
2023/12/04 00:44:54;;;;;;;;;;;;;;;3.91;nan;102213.00;5086063;28;19965;-83
2023/12/04 00:47:20;;;;;;;;;;;;;;;3.94;nan;102217.97;5081779;28;19916;-83
2023/12/04 00:49:45;;;;;;;;;;;;;;;3.97;nan;102210.69;5081905;28;19930;-83
2023/12/04 00:52:10;;;;;;;;;;;;;;;3.96;nan;102212.53;5081451;28;19931;-83
2023/12/04 00:54:38;;;;;;;;;;;;;;;4.01;nan;102220.78;5086847;28;20351;-84
2023/12/04 00:57:04;;;;;;;;;;;;;;;4.01;nan;102217.31;5087566;28;20007;-83
2023/12/04 00:59:29;;;;;;;;;;;;;;;4.04;nan;102223.09;5088203;28;20006;-84
2023/12/04 01:01:54;;;;;;;;;;;;;;;4.06;nan;102214.97;5083189;28;19949;-83
2023/12/04 01:04:19;;;;;;;;;;;;;;;4.07;nan;102213.97;5093231;28;19932;-83
2023/12/04 01:06:45;;;;;;;;;;;;;;;4.08;nan;102205.03;5094392;28;19942;-83
2023/12/04 01:09:10;;;;;;;;;;;;;;;4.05;nan;102206.19;5090377;28;19955;-83
2023/12/04 01:11:36;;;;;;;;;;;;;;;4.08;nan;102205.03;5087075;28;20037;-83
2023/12/04 01:14:02;;;;;;;;;;;;;;;4.06;nan;102197.25;5082082;28;19923;-83
2023/12/04 01:16:27;;;;;;;;;;;;;;;4.01;nan;102199.56;5092655;28;19923;-83
2023/12/04 01:18:52;;;;;;;;;;;;;;;3.98;nan;102204.41;5083363;28;20048;-83
2023/12/04 01:21:18;;;;;;;;;;;;;;;4.00;nan;102207.72;5081443;28;19946;-83
2023/12/04 01:23:44;;;;;;;;;;;;;;;3.99;nan;102209.53;5082554;28;19927;-84
2023/12/04 01:26:10;;;;;;;;;;;;;;;4.01;nan;102204.06;5070699;28;20597;-83
2023/12/04 01:28:35;;;;;;;;;;;;;;;4.06;nan;102202.53;5083617;28;20434;-83
2023/12/04 01:31:00;;;;;;;;;;;;;;;4.09;nan;102204.03;5071881;28;19920;-83
2023/12/04 01:33:26;;;;;;;;;;;;;;;4.10;nan;102198.53;5081198;28;19985;-83
2023/12/04 01:35:52;;;;;;;;;;;;;;;4.12;nan;102201.03;5084916;28;20460;-83
2023/12/04 01:38:17;;;;;;;;;;;;;;;4.12;nan;102206.31;5076663;28;20391;-83
2023/12/04 01:40:43;;;;;;;;;;;;;;;4.11;nan;102205.50;5090864;28;19926;-83
2023/12/04 01:43:08;;;;;;;;;;;;;;;4.11;nan;102196.72;5083963;28;20033;-83
2023/12/04 01:45:33;;;;;;;;;;;;;;;4.10;nan;102197.72;5086449;28;19920;-84
2023/12/04 01:47:59;;;;;;;;;;;;;;;4.05;nan;102190.28;5087785;28;19955;-83
2023/12/04 01:50:24;;;;;;;;;;;;;;;4.04;nan;102191.28;5085113;28;19982;-85
2023/12/04 01:52:51;;;;;;;;;;;;;;;4.01;nan;102182.84;5091637;28;20540;-83
2023/12/04 01:55:17;;;;;;;;;;;;;;;3.97;nan;102184.19;5081704;28;19920;-83
2023/12/04 01:57:42;;;;;;;;;;;;;;;3.93;nan;102181.00;5080711;28;19924;-83
2023/12/04 02:00:11;;;;;;;;;;;;;;;3.90;nan;102182.19;5087944;28;20499;-83
2023/12/04 02:02:37;;;;;;;;;;;;;;;3.85;nan;102184.53;5081251;28;19920;-83
2023/12/04 02:05:03;;;;;;;;;;;;;;;3.82;nan;102182.22;5080152;28;19917;-83
2023/12/04 02:07:28;;;;;;;;;;;;;;;3.77;nan;102176.59;5076706;28;20331;-83
2023/12/04 02:09:53;;;;;;;;;;;;;;;3.72;nan;102181.56;5078127;28;19947;-84
2023/12/04 02:12:19;;;;;;;;;;;;;;;3.66;nan;102178.75;5085824;28;20303;-83
2023/12/04 02:14:44;;;;;;;;;;;;;;;3.59;nan;102173.28;5079918;28;20284;-82
2023/12/04 02:17:11;;;;;;;;;;;;;;;3.56;nan;102173.63;5086162;28;19926;-84
2023/12/04 02:19:36;;;;;;;;;;;;;;;3.52;nan;102167.00;5084804;28;19916;-83
2023/12/04 02:22:01;;;;;;;;;;;;;;;3.49;nan;102177.94;5087601;28;19931;-82
2023/12/04 02:24:27;;;;;;;;;;;;;;;3.46;nan;102165.03;5081855;28;20415;-83
2023/12/04 02:26:54;;;;;;;;;;;;;;;3.43;nan;102178.63;5086851;28;19923;-83
2023/12/04 02:29:37;;;;;;;;;;;;;;;3.41;nan;102172.63;5084495;28;19924;-83
2023/12/04 02:32:03;;;;;;;;;;;;;;;3.31;nan;102173.63;5089512;28;20003;-83
2023/12/04 02:34:32;;;;;;;;;;;;;;;3.25;nan;102176.94;5092653;28;19935;-83
2023/12/04 02:36:58;;;;;;;;;;;;;;;3.18;nan;102172.47;5085018;28;19920;-83
2023/12/04 02:39:23;;;;;;;;;;;;;;;3.09;nan;102176.94;5095411;28;19969;-83
2023/12/04 02:41:49;;;;;;;;;;;;;;;3.02;nan;102168.81;5084922;28;20313;-83
2023/12/04 02:44:14;;;;;;;;;;;;;;;2.97;nan;102165.81;5092892;28;20461;-84
2023/12/04 02:46:39;;;;;;;;;;;;;;;2.94;nan;102166.16;5090567;28;19970;-84
2023/12/04 02:49:05;;;;;;;;;;;;;;;2.90;nan;102156.88;5090991;28;19942;-84
2023/12/04 02:51:30;;;;;;;;;;;;;;;2.88;nan;102156.22;5099204;28;20603;-83
2023/12/04 02:53:55;;;;;;;;;;;;;;;2.82;nan;102153.38;5092178;28;20326;-83
2023/12/04 02:56:21;;;;;;;;;;;;;;;2.75;nan;102155.88;5090945;28;20410;-84
2023/12/04 02:58:46;;;;;;;;;;;;;;;2.69;nan;102154.72;5090921;28;19916;-83
2023/12/04 03:01:11;;;;;;;;;;;;;;;2.61;nan;102144.09;5087829;28;19916;-83
2023/12/04 03:03:36;;;;;;;;;;;;;;;2.57;nan;102142.75;5086553;28;19925;-83
2023/12/04 03:06:02;;;;;;;;;;;;;;;2.54;nan;102143.09;5090969;28;19970;-84
2023/12/04 03:08:27;;;;;;;;;;;;;;;2.53;nan;102143.25;5096067;28;19924;-83
2023/12/04 03:10:52;;;;;;;;;;;;;;;2.53;nan;102138.78;5090056;28;19924;-83
2023/12/04 03:13:18;;;;;;;;;;;;;;;2.51;nan;102142.56;5071686;28;19926;-84
2023/12/04 03:15:43;;;;;;;;;;;;;;;2.44;nan;102145.03;5092514;28;20312;-83
2023/12/04 03:18:08;;;;;;;;;;;;;;;2.39;nan;102139.41;5090848;28;19994;-83
2023/12/04 03:20:34;;;;;;;;;;;;;;;2.38;nan;102141.22;5092646;28;19927;-84
2023/12/04 03:22:59;;;;;;;;;;;;;;;2.38;nan;102143.03;5092774;28;20390;-83
2023/12/04 03:25:24;;;;;;;;;;;;;;;2.37;nan;102136.91;5088717;28;20391;-84
2023/12/04 03:27:50;;;;;;;;;;;;;;;2.38;nan;102124.50;5090468;28;19917;-83
2023/12/04 03:30:16;;;;;;;;;;;;;;;2.38;nan;102129.81;5090851;28;19956;-83
2023/12/04 03:32:41;;;;;;;;;;;;;;;2.36;nan;102119.38;5089218;28;19916;-83
2023/12/04 03:35:07;;;;;;;;;;;;;;;2.33;nan;102118.84;5087485;28;19919;-83
2023/12/04 03:37:32;;;;;;;;;;;;;;;2.29;nan;102120.16;5085391;28;19916;-83
2023/12/04 03:39:57;;;;;;;;;;;;;;;2.27;nan;102122.97;5068783;28;19982;-83
2023/12/04 03:42:23;;;;;;;;;;;;;;;2.26;nan;102120.50;5082782;28;19925;-83
2023/12/04 03:44:48;;;;;;;;;;;;;;;2.25;nan;102124.13;5084152;28;19959;-83
2023/12/04 03:47:13;;;;;;;;;;;;;;;2.22;nan;102117.34;5083639;28;20678;-83
2023/12/04 03:49:39;;;;;;;;;;;;;;;2.20;nan;102116.69;5083708;28;19916;-83
2023/12/04 03:52:04;;;;;;;;;;;;;;;2.19;nan;102116.84;5092011;28;19916;-83
2023/12/04 03:54:29;;;;;;;;;;;;;;;2.13;nan;102111.19;5086399;28;19916;-83
2023/12/04 03:56:55;;;;;;;;;;;;;;;2.10;nan;102116.78;5085897;28;19959;-83
2023/12/04 03:59:20;;;;;;;;;;;;;;;2.09;nan;102120.44;5082937;28;20035;-84
2023/12/04 04:01:45;;;;;;;;;;;;;;;2.07;nan;102129.50;5086921;28;19924;-84
2023/12/04 04:04:11;;;;;;;;;;;;;;;2.00;nan;102141.72;5083424;28;20362;-83
2023/12/04 04:06:38;;;;;;;;;;;;;;;1.90;nan;102127.78;5089241;28;20529;-84
2023/12/04 04:09:03;;;;;;;;;;;;;;;1.85;nan;102138.81;5091061;28;19970;-83
2023/12/04 04:11:28;;;;;;;;;;;;;;;1.79;nan;102140.25;5096016;28;19920;-83
2023/12/04 04:13:54;;;;;;;;;;;;;;;1.76;nan;102134.44;5088390;28;20468;-83
2023/12/04 04:16:19;;;;;;;;;;;;;;;1.76;nan;102134.44;5083756;28;19920;-83
2023/12/04 04:18:44;;;;;;;;;;;;;;;1.75;nan;102124.88;5087216;28;19924;-83
2023/12/04 04:21:10;;;;;;;;;;;;;;;1.72;nan;102122.56;5085769;28;19916;-83
2023/12/04 04:23:35;;;;;;;;;;;;;;;1.65;nan;102117.06;5089549;28;20415;-83
2023/12/04 04:26:01;;;;;;;;;;;;;;;1.61;nan;102120.97;5091588;28;20384;-83
2023/12/04 04:28:26;;;;;;;;;;;;;;;1.58;nan;102117.84;5087695;28;19939;-83
2023/12/04 04:30:51;;;;;;;;;;;;;;;1.54;nan;102109.41;5083279;28;19920;-81
2023/12/04 04:33:17;;;;;;;;;;;;;;;1.54;nan;102108.56;5093388;28;19994;-84
2023/12/04 04:35:43;;;;;;;;;;;;;;;1.52;nan;102112.19;5087829;28;20087;-83
2023/12/04 04:38:09;;;;;;;;;;;;;;;1.49;nan;102117.78;5083006;28;19946;-83
2023/12/04 04:40:34;;;;;;;;;;;;;;;1.48;nan;102107.38;5083762;28;20458;-84
2023/12/04 04:42:59;;;;;;;;;;;;;;;1.46;nan;102118.09;5088571;28;19967;-83
2023/12/04 04:45:25;;;;;;;;;;;;;;;1.42;nan;102115.91;5093867;28;19942;-83
2023/12/04 04:47:50;;;;;;;;;;;;;;;1.35;nan;102110.44;5087485;28;19919;-83
2023/12/04 04:50:15;;;;;;;;;;;;;;;1.32;nan;102102.00;5088777;28;20002;-83
2023/12/04 04:52:41;;;;;;;;;;;;;;;1.29;nan;102105.78;5087101;28;19912;-84
2023/12/04 04:55:06;;;;;;;;;;;;;;;1.29;nan;102110.22;5089945;28;20019;-83
2023/12/04 04:57:31;;;;;;;;;;;;;;;1.27;nan;102104.28;5087004;28;19924;-83
2023/12/04 04:59:57;;;;;;;;;;;;;;;1.26;nan;102102.59;5090113;28;19919;-83
2023/12/04 05:02:22;;;;;;;;;;;;;;;1.24;nan;102099.28;5090610;28;20492;-84
2023/12/04 05:04:48;;;;;;;;;;;;;;;1.24;nan;102094.81;5085426;28;20366;-83
2023/12/04 05:07:13;;;;;;;;;;;;;;;1.23;nan;102095.81;5089671;28;20439;-83
2023/12/04 05:09:38;;;;;;;;;;;;;;;1.22;nan;102099.44;5092209;28;19916;-84
2023/12/04 05:12:04;;;;;;;;;;;;;;;1.20;nan;102098.75;5088778;28;19920;-84
2023/12/04 05:14:29;;;;;;;;;;;;;;;1.16;nan;102102.69;5090968;28;20023;-84
2023/12/04 05:16:55;;;;;;;;;;;;;;;1.13;nan;102095.09;5087756;28;20378;-84
2023/12/04 05:19:20;;;;;;;;;;;;;;;1.11;nan;102086.50;5089491;28;20372;-84
2023/12/04 05:21:45;;;;;;;;;;;;;;;1.06;nan;102086.94;5084976;28;20027;-84
2023/12/04 05:24:11;;;;;;;;;;;;;;;1.05;nan;102087.91;5080348;28;19923;-83
2023/12/04 05:26:36;;;;;;;;;;;;;;;1.04;nan;102093.34;5084999;28;19977;-83
2023/12/04 05:29:01;;;;;;;;;;;;;;;1.03;nan;102086.41;5071328;28;19968;-83
2023/12/04 05:31:27;;;;;;;;;;;;;;;1.02;nan;102082.13;5086126;28;19924;-84
2023/12/04 05:33:52;;;;;;;;;;;;;;;1.02;nan;102082.94;5089072;28;20322;-84
2023/12/04 05:36:17;;;;;;;;;;;;;;;1.02;nan;102084.75;5070832;28;20399;-83
2023/12/04 05:38:43;;;;;;;;;;;;;;;1.00;nan;102084.09;5092077;28;19924;-84
2023/12/04 05:41:08;;;;;;;;;;;;;;;0.96;nan;102082.72;5082924;28;20381;-84
2023/12/04 05:43:33;;;;;;;;;;;;;;;0.94;nan;102074.97;5090603;28;19923;-83
2023/12/04 05:45:58;;;;;;;;;;;;;;;0.95;nan;102075.81;5068688;28;20359;-85
2023/12/04 05:48:24;;;;;;;;;;;;;;;0.94;nan;102076.78;5087208;28;20446;-83
2023/12/04 05:50:49;;;;;;;;;;;;;;;0.93;nan;102075.97;5065087;28;19991;-84
2023/12/04 05:53:14;;;;;;;;;;;;;;;0.92;nan;102070.84;5088335;28;19920;-84
2023/12/04 05:55:40;;;;;;;;;;;;;;;0.92;nan;102079.56;5069456;28;19949;-85
2023/12/04 05:58:05;;;;;;;;;;;;;;;0.92;nan;102076.09;5092519;28;19916;-83
2023/12/04 06:00:31;;;;;;;;;;;;;;;0.90;nan;102073.63;5090614;28;19924;-84
2023/12/04 06:02:56;;;;;;;;;;;;;;;0.89;nan;102071.94;5088140;28;20403;-84
2023/12/04 06:05:23;;;;;;;;;;;;;;;0.88;nan;102065.84;5092682;28;19945;-84
2023/12/04 06:07:48;;;;;;;;;;;;;;;0.87;nan;102064.19;5088139;28;20368;-84
2023/12/04 06:10:13;;;;;;;;;;;;;;;0.85;nan;102060.88;5097385;28;19931;-84
2023/12/04 06:12:38;;;;;;;;;;;;;;;0.86;nan;102056.41;5091927;28;19916;-84
2023/12/04 06:15:04;;;;;;;;;;;;;;;0.86;nan;102062.53;5092698;28;19920;-84
2023/12/04 06:17:30;;;;;;;;;;;;;;;0.88;nan;102059.72;5089601;28;19916;-84
2023/12/04 06:19:55;;;;;;;;;;;;;;;0.88;nan;102065.84;5087482;28;19930;-84
2023/12/04 06:22:21;;;;;;;;;;;;;;;0.87;nan;102061.53;5088504;28;19920;-84
2023/12/04 06:24:47;;;;;;;;;;;;;;;0.90;nan;102061.25;5071281;28;19924;-84
2023/12/04 06:27:14;;;;;;;;;;;;;;;0.89;nan;102064.03;5086074;28;19942;-84
2023/12/04 06:29:40;;;;;;;;;;;;;;;0.89;nan;102064.84;5089735;28;19927;-84
2023/12/04 06:32:05;;;;;;;;;;;;;;;0.90;nan;102060.44;5088864;28;20332;-84
2023/12/04 06:34:31;;;;;;;;;;;;;;;0.87;nan;102064.19;5089632;28;20511;-84
2023/12/04 06:36:56;;;;;;;;;;;;;;;0.84;nan;102067.13;5090278;28;20387;-83
2023/12/04 06:39:23;;;;;;;;;;;;;;;0.80;nan;102068.41;5073695;28;20525;-84
2023/12/04 06:41:49;;;;;;;;;;;;;;;0.80;nan;102067.59;5087278;28;19928;-84
2023/12/04 06:44:14;;;;;;;;;;;;;;;0.81;nan;102062.16;5088427;28;19923;-83
2023/12/04 06:46:40;;;;;;;;;;;;;;;0.81;nan;102069.25;5085037;28;19928;-84
2023/12/04 06:49:06;;;;;;;;;;;;;;;0.80;nan;102063.13;5091356;28;20015;-83
2023/12/04 06:51:32;;;;;;;;;;;;;;;0.79;nan;102064.13;5088644;28;20018;-84
2023/12/04 06:53:57;;;;;;;;;;;;;;;0.76;nan;102074.97;5070530;28;19919;-83
2023/12/04 06:56:23;;;;;;;;;;;;;;;0.72;nan;102064.88;5073172;28;20351;-83
2023/12/04 06:58:48;;;;;;;;;;;;;;;0.71;nan;102066.66;5084441;28;19924;-83
2023/12/04 07:01:13;;;;;;;;;;;;;;;0.70;nan;102062.38;5082790;28;19924;-82
2023/12/04 07:03:39;;;;;;;;;;;;;;;0.71;nan;102058.75;5092297;28;19916;-83
2023/12/04 07:06:04;;;;;;;;;;;;;;;0.75;nan;102054.88;5091360;28;19920;-83
2023/12/04 07:08:29;;;;;;;;;;;;;;;0.80;nan;102057.03;5091414;28;19946;-82
2023/12/04 07:10:55;;;;;;;;;;;;;;;0.84;nan;102058.38;5086521;28;19924;-83
2023/12/04 07:13:20;;;;;;;;;;;;;;;0.85;nan;102062.69;5085959;28;19916;-83
2023/12/04 07:15:45;;;;;;;;;;;;;;;0.84;nan;102061.84;5087798;28;19931;-83
2023/12/04 07:18:11;;;;;;;;;;;;;;;0.82;nan;102065.63;5091405;28;19923;-82
2023/12/04 07:20:36;;;;;;;;;;;;;;;0.82;nan;102063.81;5091960;28;20343;-83
2023/12/04 07:23:01;;;;;;;;;;;;;;;0.80;nan;102057.88;5095090;28;20372;-83
2023/12/04 07:25:27;;;;;;;;;;;;;;;0.78;nan;102065.09;5087028;28;19916;-83
2023/12/04 07:27:52;;;;;;;;;;;;;;;0.80;nan;102062.31;5087609;28;19916;-83
2023/12/04 07:30:18;;;;;;;;;;;;;;;0.82;nan;102065.63;5071364;28;19994;-83
2023/12/04 07:32:43;;;;;;;;;;;;;;;0.86;nan;102064.34;5089184;28;19923;-83
2023/12/04 07:35:08;;;;;;;;;;;;;;;0.90;nan;102060.44;5084692;28;19920;-83
2023/12/04 07:37:34;;;;;;;;;;;;;;;0.90;nan;102063.06;5089159;28;20368;-84
2023/12/04 07:39:59;;;;;;;;;;;;;;;0.94;nan;102076.78;5091520;28;20363;-83
2023/12/04 07:42:25;;;;;;;;;;;;;;;0.94;nan;102077.63;5088036;28;20326;-83
2023/12/04 07:44:50;;;;;;;;;;;;;;;0.89;nan;102072.78;5086607;28;19916;-83
2023/12/04 07:47:15;;;;;;;;;;;;;;;0.87;nan;102087.09;5084673;28;20347;-83
2023/12/04 07:49:41;;;;;;;;;;;;;;;0.82;nan;102081.47;5088896;28;20336;-83
2023/12/04 07:52:07;;;;;;;;;;;;;;;0.81;nan;102082.44;5065776;28;20026;-83
2023/12/04 07:54:32;;;;;;;;;;;;;;;0.79;nan;102076.47;5089236;28;19959;-83
2023/12/04 07:56:58;;;;;;;;;;;;;;;0.80;nan;102071.06;5084764;28;19920;-83
2023/12/04 07:59:23;;;;;;;;;;;;;;;0.75;nan;102070.69;5089610;28;19932;-83
2023/12/04 08:01:48;;;;;;;;;;;;;;;0.67;nan;102067.97;5089332;28;19928;-83
2023/12/04 08:04:14;;;;;;;;;;;;;;;0.67;nan;102064.50;5090988;28;19916;-83
2023/12/04 08:06:39;;;;;;;;;;;;;;;0.73;nan;102062.09;5085979;28;20304;-84
2023/12/04 08:09:09;;;;;;;;;;;;;;;0.83;nan;102056.72;5089669;28;20349;-83
2023/12/04 08:11:34;;;;;;;;;;;;;;;0.84;nan;102056.56;5084909;28;19927;-83
2023/12/04 08:13:59;;;;;;;;;;;;;;;0.81;nan;102056.88;5082059;28;19916;-83
2023/12/04 08:16:27;;;;;;;;;;;;;;;0.84;nan;102046.03;5081763;28;19920;-83
2023/12/04 08:18:53;;;;;;;;;;;;;;;0.88;nan;102047.38;5086265;28;20019;-83
2023/12/04 08:21:18;;;;;;;;;;;;;;;0.84;nan;102046.03;5085401;28;19970;-83
2023/12/04 08:23:43;;;;;;;;;;;;;;;0.87;nan;102053.63;5084843;28;19998;-84
2023/12/04 08:26:08;;;;;;;;;;;;;;;0.91;nan;102051.53;5088712;28;19978;-83
2023/12/04 08:28:35;;;;;;;;;;;;;;;0.94;nan;102045.94;5088199;28;20409;-83
2023/12/04 08:31:00;;;;;;;;;;;;;;;0.96;nan;102045.78;5091249;28;19923;-83
2023/12/04 08:33:26;;;;;;;;;;;;;;;1.00;nan;102047.13;5084189;28;20292;-82
2023/12/04 08:35:53;;;;;;;;;;;;;;;1.09;nan;102041.78;5087604;28;20138;-83
2023/12/04 08:38:19;;;;;;;;;;;;;;;1.15;nan;102041.16;5083892;28;19920;-83
2023/12/04 08:40:44;;;;;;;;;;;;;;;1.21;nan;102043.16;5086338;28;20033;-83
2023/12/04 08:43:09;;;;;;;;;;;;;;;1.26;nan;102037.44;5088164;28;20368;-83
2023/12/04 08:45:35;;;;;;;;;;;;;;;1.33;nan;102035.81;5091823;28;20371;-83
2023/12/04 08:48:01;;;;;;;;;;;;;;;1.44;nan;102032.09;5087520;28;20510;-83
2023/12/04 08:50:26;;;;;;;;;;;;;;;1.54;nan;102029.31;5088300;28;19923;-83
2023/12/04 08:52:52;;;;;;;;;;;;;;;1.59;nan;102033.13;5092900;28;19920;-83
2023/12/04 08:55:17;;;;;;;;;;;;;;;1.68;nan;102031.38;5083374;28;19923;-82
2023/12/04 08:57:42;;;;;;;;;;;;;;;1.78;nan;102040.00;5078910;28;20015;-83
2023/12/04 09:00:08;;;;;;;;;;;;;;;1.89;nan;102033.59;5092008;28;19920;-83
2023/12/04 09:02:33;;;;;;;;;;;;;;;1.97;nan;102036.28;5084585;28;20037;-83
2023/12/04 09:04:59;;;;;;;;;;;;;;;2.03;nan;102041.75;5080735;28;19919;-82
2023/12/04 09:07:24;;;;;;;;;;;;;;;2.10;nan;102040.13;5071157;28;20624;-83
2023/12/04 09:09:49;;;;;;;;;;;;;;;2.17;nan;102036.84;5081599;28;20418;-83
2023/12/04 09:12:15;;;;;;;;;;;;;;;2.21;nan;102035.53;5089817;28;19923;-83
2023/12/04 09:14:40;;;;;;;;;;;;;;;2.22;nan;102040.66;5086268;28;19943;-83
2023/12/04 09:17:05;;;;;;;;;;;;;;;2.28;nan;102040.00;5081366;28;19922;-83
2023/12/04 09:19:31;;;;;;;;;;;;;;;2.37;nan;102043.50;5087753;28;20299;-83
2023/12/04 09:21:57;;;;;;;;;;;;;;;2.44;nan;102039.22;5089459;28;20295;-83
2023/12/04 09:24:23;;;;;;;;;;;;;;;2.52;nan;102025.19;5087228;28;19924;-83
2023/12/04 09:26:48;;;;;;;;;;;;;;;2.62;nan;102031.94;5084458;28;19924;-83
2023/12/04 09:29:15;;;;;;;;;;;;;;;2.69;nan;102029.47;5089624;28;19916;-83
2023/12/04 09:31:40;;;;;;;;;;;;;;;2.73;nan;102029.00;5091732;28;19958;-82
2023/12/04 09:34:06;;;;;;;;;;;;;;;2.80;nan;102028.31;5080999;28;19952;-83
2023/12/04 09:36:31;;;;;;;;;;;;;;;2.78;nan;102027.66;5085152;28;20822;-83
2023/12/04 09:38:56;;;;;;;;;;;;;;;2.79;nan;102039.91;5089072;28;20342;-83
2023/12/04 09:41:22;;;;;;;;;;;;;;;2.84;nan;102029.63;5084179;28;19955;-83
2023/12/04 09:43:48;;;;;;;;;;;;;;;2.86;nan;102031.13;5083002;28;19919;-83
2023/12/04 09:46:14;;;;;;;;;;;;;;;2.93;nan;102026.00;5082180;28;20377;-83
2023/12/04 09:48:41;;;;;;;;;;;;;;;2.98;nan;102023.69;5084357;28;19947;-83
2023/12/04 09:51:06;;;;;;;;;;;;;;;3.03;nan;102024.00;5075934;28;19920;-84
2023/12/04 09:53:33;;;;;;;;;;;;;;;3.11;nan;102015.22;5079688;28;19924;-83
2023/12/04 09:55:59;;;;;;;;;;;;;;;3.21;nan;102015.84;5079053;28;19930;-84
2023/12/04 09:58:28;;;;;;;;;;;;;;;3.28;nan;102022.97;5078419;28;19916;-83
2023/12/04 10:00:54;;;;;;;;;;;;;;;3.36;nan;102013.34;5083320;28;19923;-83
2023/12/04 10:03:20;;;;;;;;;;;;;;;3.43;nan;102003.75;5083168;28;20308;-84
2023/12/04 10:05:45;;;;;;;;;;;;;;;3.53;nan;102009.66;5081197;28;19920;-84
2023/12/04 10:08:11;;;;;;;;;;;;;;;3.59;nan;102004.53;5090764;28;20344;-86
2023/12/04 10:10:36;;;;;;;;;;;;;;;3.60;nan;102006.16;5084319;28;20651;-83
2023/12/04 10:13:03;;;;;;;;;;;;;;;3.66;nan;101993.22;5081095;28;21179;-83
2023/12/04 10:15:28;;;;;;;;;;;;;;;3.73;nan;101994.19;5071515;28;19920;-84
2023/12/04 10:17:54;;;;;;;;;;;;;;;3.84;nan;101989.31;5083705;28;19916;-83
2023/12/04 10:20:21;;;;;;;;;;;;;;;3.91;nan;101979.66;5083635;28;19920;-84
2023/12/04 10:22:57;;;;;;;;;;;;;;;4.01;nan;101975.97;5084825;28;19963;-84
2023/12/04 10:25:24;;;;;;;;;;;;;;;4.07;nan;101980.56;5088199;28;20016;-83
2023/12/04 10:27:50;;;;;;;;;;;;;;;4.07;nan;101969.97;5084118;28;20062;-83
2023/12/04 10:30:26;;;;;;;;;;;;;;;4.10;nan;101974.91;5088652;28;20004;-83
2023/12/04 10:32:55;;;;;;;;;;;;;;;4.19;nan;101968.56;5085039;28;20005;-83
2023/12/04 10:35:22;;;;;;;;;;;;;;;4.25;nan;101965.19;5085460;28;19916;-84
2023/12/04 10:37:47;;;;;;;;;;;;;;;4.29;nan;101957.72;5087016;28;20021;-84
2023/12/04 10:40:22;;;;;;;;;;;;;;;4.33;nan;101954.56;5089017;28;20405;-84
2023/12/04 10:42:47;;;;;;;;;;;;;;;4.36;nan;101948.06;5085286;28;19923;-84
2023/12/04 10:45:13;;;;;;;;;;;;;;;4.38;nan;101949.53;5070286;28;19927;-84
2023/12/04 10:47:38;;;;;;;;;;;;;;;4.38;nan;101949.53;5080096;28;19925;-83
2023/12/04 10:50:04;;;;;;;;;;;;;;;4.45;nan;101945.16;5083728;28;19920;-84
2023/12/04 10:52:30;;;;;;;;;;;;;;;4.50;nan;101942.81;5090238;28;19970;-84
2023/12/04 10:54:58;;;;;;;;;;;;;;;4.47;nan;101944.97;5091752;28;20400;-84
2023/12/04 10:57:27;;;;;;;;;;;;;;;4.42;nan;101942.03;5081743;28;19931;-83
2023/12/04 10:59:56;;;;;;;;;;;;;;;4.41;nan;101935.06;5087254;28;19919;-83
2023/12/04 11:02:26;;;;;;;;;;;;;;;4.41;nan;101937.72;5083690;28;19927;-83
2023/12/04 11:04:54;;;;;;;;;;;;;;;4.42;nan;101937.56;5087101;28;19915;-84
2023/12/04 11:07:20;;;;;;;;;;;;;;;4.41;nan;101930.59;5085699;28;19926;-84
2023/12/04 11:09:47;;;;;;;;;;;;;;;4.47;nan;101929.88;5093513;28;19924;-83
2023/12/04 11:12:14;;;;;;;;;;;;;;;4.50;nan;101937.50;5093412;28;19923;-84
2023/12/04 11:14:42;;;;;;;;;;;;;;;4.54;nan;101930.00;5087521;28;19920;-84
2023/12/04 11:17:11;;;;;;;;;;;;;;;4.52;nan;101919.56;5088734;28;19916;-83
2023/12/04 11:20:01;;;;;;;;;;;;;;;4.47;nan;101919.25;5072175;28;19915;-83
2023/12/04 11:22:27;;;;;;;;;;;;;;;4.46;nan;101909.66;5072915;28;19931;-83
2023/12/04 11:24:52;;;;;;;;;;;;;;;4.47;nan;101911.28;5084649;28;19920;-83
2023/12/04 11:27:18;;;;;;;;;;;;;;;4.54;nan;101912.25;5084771;28;19969;-83
2023/12/04 11:29:45;;;;;;;;;;;;;;;4.63;nan;101901.53;5090152;28;19947;-83
2023/12/04 11:32:15;;;;;;;;;;;;;;;4.65;nan;101899.53;5088558;28;19931;-84
2023/12/04 11:35:04;;;;;;;;;;;;;;;4.69;nan;101906.13;5086771;28;19942;-83
2023/12/04 11:37:29;;;;;;;;;;;;;;;4.70;nan;101902.47;5080541;28;19930;-83
2023/12/04 11:39:56;;;;;;;;;;;;;;;4.70;nan;101898.00;5087975;28;19920;-83
2023/12/04 11:42:24;;;;;;;;;;;;;;;4.74;nan;101904.59;5096297;28;20028;-84
2023/12/04 11:44:55;;;;;;;;;;;;;;;4.76;nan;101899.91;5090272;28;20023;-83
2023/12/04 11:47:21;;;;;;;;;;;;;;;4.76;nan;101894.59;5084316;28;20195;-83
2023/12/04 11:49:46;;;;;;;;;;;;;;;4.73;nan;101894.16;5085567;28;19920;-83
2023/12/04 11:52:11;;;;;;;;;;;;;;;4.74;nan;101893.13;5083244;28;20390;-83
2023/12/04 11:55:00;;;;;;;;;;;;;;;4.76;nan;101891.13;5092099;28;19931;-84
2023/12/04 11:57:25;;;;;;;;;;;;;;;4.76;nan;101891.13;5087886;28;19922;-83
2023/12/04 11:59:51;;;;;;;;;;;;;;;4.80;nan;101887.09;5090430;28;19919;-84
2023/12/04 12:02:17;;;;;;;;;;;;;;;4.85;nan;101882.09;5091378;28;19924;-83
2023/12/04 12:04:42;;;;;;;;;;;;;;;4.93;nan;101871.34;5086383;28;19961;-83
2023/12/04 12:07:08;;;;;;;;;;;;;;;4.97;nan;101871.81;5089383;28;19955;-83
2023/12/04 12:09:33;;;;;;;;;;;;;;;5.02;nan;101866.75;5066370;28;19920;-84
2023/12/04 12:12:00;;;;;;;;;;;;;;;5.06;nan;101865.41;5092794;28;19924;-84
2023/12/04 12:14:25;;;;;;;;;;;;;;;5.09;nan;101859.72;5084925;28;19927;-83
2023/12/04 12:16:51;;;;;;;;;;;;;;;5.08;nan;101858.06;5082601;28;19916;-84
2023/12/04 12:19:18;;;;;;;;;;;;;;;5.07;nan;101853.78;5089502;28;20298;-83
2023/12/04 12:21:45;;;;;;;;;;;;;;;5.07;nan;101851.13;5087648;28;19935;-83
2023/12/04 12:24:11;;;;;;;;;;;;;;;5.12;nan;101854.84;5079711;28;19916;-84
2023/12/04 12:26:37;;;;;;;;;;;;;;;5.14;nan;101850.19;5083777;28;20080;-84
2023/12/04 12:29:03;;;;;;;;;;;;;;;5.16;nan;101850.81;5082055;28;20086;-84
2023/12/04 12:31:28;;;;;;;;;;;;;;;5.20;nan;101850.44;5083206;28;19919;-84
2023/12/04 12:33:55;;;;;;;;;;;;;;;5.23;nan;101842.94;5081156;28;19923;-83
2023/12/04 12:36:20;;;;;;;;;;;;;;;5.28;nan;101839.72;5076634;28;19916;-83
2023/12/04 12:38:49;;;;;;;;;;;;;;;5.26;nan;101839.09;5087862;28;19947;-84
2023/12/04 12:41:16;;;;;;;;;;;;;;;5.24;nan;101836.63;5080271;28;19917;-83
2023/12/04 12:43:41;;;;;;;;;;;;;;;5.22;nan;101833.31;5085677;28;19950;-83
2023/12/04 12:46:07;;;;;;;;;;;;;;;5.18;nan;101826.72;5085884;28;20388;-84
2023/12/04 12:48:32;;;;;;;;;;;;;;;5.15;nan;101825.25;5090731;28;19920;-83
2023/12/04 12:50:57;;;;;;;;;;;;;;;5.14;nan;101820.94;5088592;28;19931;-83
2023/12/04 12:53:23;;;;;;;;;;;;;;;5.10;nan;101819.69;5083722;28;19931;-83
2023/12/04 12:55:49;;;;;;;;;;;;;;;5.12;nan;101822.97;5079278;28;20062;-83
2023/12/04 12:58:15;;;;;;;;;;;;;;;5.18;nan;101829.38;5073904;28;19924;-84
2023/12/04 13:00:42;;;;;;;;;;;;;;;5.23;nan;101818.22;5076667;28;20119;-83